createdAt,value
2024-05-09T00:01:54.468Z,99531.16
2024-05-09T00:05:37.730Z,99526.78
2024-05-09T00:09:13.458Z,99526.38
2024-05-09T00:12:42.559Z,99512.69
2024-05-09T00:16:11.452Z,99509.50
2024-05-09T00:19:40.595Z,99515.78
2024-05-09T00:23:03.300Z,99519.53
2024-05-09T00:26:39.488Z,99512.72
2024-05-09T00:30:03.894Z,99519.03
2024-05-09T00:33:39.591Z,99511.28
2024-05-09T00:37:02.008Z,99510.09
2024-05-09T00:40:40.446Z,99501.75
2024-05-09T00:44:05.105Z,99507.78
2024-05-09T00:47:40.710Z,99518.41
2024-05-09T00:51:04.117Z,99516.38
2024-05-09T00:54:39.455Z,99514.50
2024-05-09T00:58:24.487Z,99505.72
2024-05-09T01:02:07.522Z,99511.81
2024-05-09T01:05:51.514Z,99512.41
2024-05-09T01:09:27.471Z,99509.72
2024-05-09T01:12:56.581Z,99519.78
2024-05-09T01:16:25.474Z,99517.66
2024-05-09T01:19:54.600Z,99520.56
2024-05-09T01:23:17.038Z,99514.53
2024-05-09T01:26:52.457Z,99522.66
2024-05-09T01:30:20.966Z,99518.47
2024-05-09T01:34:06.493Z,99515.38
2024-05-09T01:37:36.023Z,99514.72
2024-05-09T01:41:11.500Z,99508.44
2024-05-09T01:44:34.010Z,99508.84
2024-05-09T01:48:10.286Z,99508.38
2024-05-09T01:51:33.020Z,99505.06
2024-05-09T01:55:08.511Z,99502.53
2024-05-09T01:58:51.541Z,99507.53
2024-05-09T02:02:34.558Z,99505.03
2024-05-09T02:06:17.580Z,99499.38
2024-05-09T02:09:56.490Z,99493.75
2024-05-09T02:13:25.596Z,99485.78
2024-05-09T02:16:54.545Z,99488.28
2024-05-09T02:20:30.706Z,99488.69
2024-05-09T02:24:04.485Z,99488.66
2024-05-09T02:27:33.658Z,99478.84
2024-05-09T02:31:02.586Z,99484.09
2024-05-09T02:34:31.699Z,99483.91
2024-05-09T02:38:00.754Z,99480.38
2024-05-09T02:41:36.531Z,99486.22
2024-05-09T02:44:58.983Z,99487.03
2024-05-09T02:48:34.604Z,99486.22
2024-05-09T02:51:57.004Z,99482.91
2024-05-09T02:55:32.674Z,99486.03
2024-05-09T02:59:15.522Z,99488.38
2024-05-09T03:02:58.591Z,99488.38
2024-05-09T03:06:41.528Z,99479.84
2024-05-09T03:10:22.436Z,99482.38
2024-05-09T03:13:59.958Z,99483.41
2024-05-09T03:17:29.683Z,99486.97
2024-05-09T03:20:58.672Z,99491.34
2024-05-09T03:24:27.513Z,99488.00
2024-05-09T03:27:56.689Z,99485.88
2024-05-09T03:31:25.506Z,99484.22
2024-05-09T03:34:54.667Z,99497.81
2024-05-09T03:38:23.567Z,99497.84
2024-05-09T03:41:59.544Z,99497.19
2024-05-09T03:45:22.026Z,99504.09
2024-05-09T03:49:04.576Z,99511.81
2024-05-09T03:52:47.549Z,99503.91
2024-05-09T03:56:30.685Z,99508.88
2024-05-09T04:00:18.267Z,99509.25
2024-05-09T04:04:08.511Z,99503.00
2024-05-09T04:07:51.552Z,99507.81
2024-05-09T04:11:27.563Z,99507.78
2024-05-09T04:14:56.744Z,99512.78
2024-05-09T04:18:25.619Z,99514.03
2024-05-09T04:22:08.533Z,99515.25
2024-05-09T04:25:49.618Z,99517.50
2024-05-09T04:29:18.730Z,99522.72
2024-05-09T04:32:47.746Z,99521.44
2024-05-09T04:36:16.700Z,99520.72
2024-05-09T04:39:45.535Z,99525.72
2024-05-09T04:43:27.515Z,99534.94
2024-05-09T04:46:50.246Z,99541.09
2024-05-09T04:50:33.882Z,99548.59
2024-05-09T04:54:00.231Z,99557.63
2024-05-09T04:57:35.566Z,99549.31
2024-05-09T05:01:18.583Z,99549.97
2024-05-09T05:05:01.637Z,99565.22
2024-05-09T05:08:44.621Z,99569.13
2024-05-09T05:12:39.576Z,99575.63
2024-05-09T05:16:08.664Z,99568.81
2024-05-09T05:19:37.656Z,99575.13
2024-05-09T05:23:06.673Z,99569.84
2024-05-09T05:26:42.677Z,99568.94
2024-05-09T05:30:29.307Z,99572.72
2024-05-09T05:34:16.554Z,99576.13
2024-05-09T05:37:59.586Z,99578.41
2024-05-09T05:41:35.633Z,99583.56
2024-05-09T05:45:06.712Z,99583.72
2024-05-09T05:48:36.618Z,99583.34
2024-05-09T05:52:05.680Z,99589.44
2024-05-09T05:55:41.551Z,99588.41
2024-05-09T05:59:24.645Z,99587.66
2024-05-09T06:03:07.917Z,99590.75
2024-05-09T06:06:50.576Z,99591.25
2024-05-09T06:10:26.431Z,99594.31
2024-05-09T06:14:03.572Z,99594.47
2024-05-09T06:17:25.992Z,99581.91
2024-05-09T06:20:48.100Z,99585.88
2024-05-09T06:24:16.598Z,99590.53
2024-05-09T06:27:45.559Z,99595.78
2024-05-09T06:31:28.603Z,99595.50
2024-05-09T06:35:11.660Z,99592.09
2024-05-09T06:38:54.558Z,99593.31
2024-05-09T06:42:30.595Z,99603.06
2024-05-09T06:46:00.673Z,99602.06
2024-05-09T06:49:30.699Z,99602.38
2024-05-09T06:53:12.633Z,99598.00
2024-05-09T06:57:00.612Z,99607.97
2024-05-09T07:00:43.777Z,99608.31
2024-05-09T07:04:31.681Z,99608.97
2024-05-09T07:08:19.027Z,99611.22
2024-05-09T07:11:54.711Z,99609.31
2024-05-09T07:15:23.730Z,99613.97
2024-05-09T07:18:54.943Z,99607.75
2024-05-09T07:22:24.392Z,99600.66
2024-05-09T07:25:46.335Z,99607.75
2024-05-09T07:29:22.704Z,99609.41
2024-05-09T07:32:45.590Z,99612.47
2024-05-09T07:36:22.663Z,99612.66
2024-05-09T07:39:46.081Z,99617.34
2024-05-09T07:43:21.608Z,99617.13
2024-05-09T07:48:14.332Z,99615.56
2024-05-09T07:55:03.823Z,99629.00
2024-05-09T07:58:52.166Z,99627.28
2024-05-09T08:02:39.676Z,99620.19
2024-05-09T08:06:27.738Z,99633.56
2024-05-09T08:10:21.834Z,99629.75
2024-05-09T08:14:05.606Z,99631.75
2024-05-09T08:17:32.853Z,99631.47
2024-05-09T08:21:13.617Z,99632.69
2024-05-09T08:24:40.793Z,99647.34
2024-05-09T08:28:28.714Z,99649.50
2024-05-09T08:32:19.653Z,99640.66
2024-05-09T08:36:07.620Z,99648.81
2024-05-09T08:39:55.766Z,99651.84
2024-05-09T08:43:39.018Z,99655.56
2024-05-09T08:47:16.772Z,99661.19
2024-05-09T08:50:50.770Z,99672.97
2024-05-09T08:54:24.726Z,99668.91
2024-05-09T08:58:05.711Z,99672.19
2024-05-09T09:01:53.681Z,99671.81
2024-05-09T09:05:43.726Z,99670.22
2024-05-09T09:09:11.629Z,99666.78
2024-05-09T09:13:05.333Z,99671.13
2024-05-09T09:16:40.727Z,99667.72
2024-05-09T09:20:19.367Z,99673.56
2024-05-09T09:24:14.634Z,99666.88
2024-05-09T09:27:42.693Z,99670.34
2024-05-09T09:31:31.819Z,99676.72
2024-05-09T09:35:19.647Z,99670.22
2024-05-09T09:39:08.641Z,99670.38
2024-05-09T09:42:54.676Z,99670.06
2024-05-09T09:46:30.853Z,99667.50
2024-05-09T09:49:46.649Z,99675.06
2024-05-09T09:53:17.661Z,99668.00
2024-05-09T09:57:07.654Z,99672.44
2024-05-09T10:00:39.807Z,99673.38
2024-05-09T10:04:07.708Z,99675.66
2024-05-09T10:07:55.643Z,99669.00
2024-05-09T10:11:49.223Z,99668.19
2024-05-09T10:15:15.642Z,99665.00
2024-05-09T10:18:44.892Z,99663.09
2024-05-09T10:22:33.638Z,99658.63
2024-05-09T10:25:42.762Z,99662.03
2024-05-09T10:29:31.708Z,99655.00
2024-05-09T10:33:23.717Z,99653.91
2024-05-09T10:37:12.699Z,99649.41
2024-05-09T10:40:43.843Z,99644.69
2024-05-09T10:44:26.661Z,99645.22
2024-05-09T10:47:42.918Z,99643.44
2024-05-09T10:51:23.664Z,99644.66
2024-05-09T10:55:05.785Z,99629.78
2024-05-09T10:58:47.668Z,99634.22
2024-05-09T11:02:35.780Z,99631.06
2024-05-09T11:06:23.692Z,99633.97
2024-05-09T11:09:55.703Z,99627.94
2024-05-09T11:13:16.698Z,99628.84
2024-05-09T11:16:30.852Z,99626.06
2024-05-09T11:19:45.692Z,99614.81
2024-05-09T11:23:37.702Z,99616.44
2024-05-09T11:27:19.882Z,99617.88
2024-05-09T11:30:54.689Z,99612.38
2024-05-09T11:34:23.815Z,99610.81
2024-05-09T11:38:08.681Z,99611.19
2024-05-09T11:41:54.726Z,99605.41
2024-05-09T11:45:35.768Z,99603.50
2024-05-09T11:49:05.093Z,99596.22
2024-05-09T11:52:33.775Z,99596.19
2024-05-09T11:56:17.689Z,99591.59
2024-05-09T11:59:53.688Z,99595.25
2024-05-09T12:03:25.507Z,99589.72
2024-05-09T12:06:54.806Z,99587.16
2024-05-09T12:10:37.852Z,99578.69
2024-05-09T12:14:13.716Z,99572.06
2024-05-09T12:17:45.709Z,99571.84
2024-05-09T12:21:16.787Z,99553.47
2024-05-09T12:25:09.763Z,99568.00
2024-05-09T12:28:57.706Z,99562.06
2024-05-09T12:32:45.873Z,99557.50
2024-05-09T12:36:34.777Z,99566.75
2024-05-09T12:40:34.704Z,99556.66
2024-05-09T12:44:22.728Z,99551.69
2024-05-09T12:47:57.976Z,99550.63
2024-05-09T12:51:24.712Z,99557.78
2024-05-09T12:55:06.842Z,99553.91
2024-05-09T12:59:00.485Z,99534.09
2024-05-09T13:02:43.757Z,99543.47
2024-05-09T13:06:32.745Z,99546.50
2024-05-09T13:10:25.583Z,99538.50
2024-05-09T13:14:12.711Z,99536.28
2024-05-09T13:18:03.698Z,99532.41
2024-05-09T13:21:46.746Z,99539.63
2024-05-09T13:25:30.757Z,99529.91
2024-05-09T13:29:13.737Z,99525.53
2024-05-09T13:32:56.783Z,99524.72
2024-05-09T13:36:39.838Z,99530.81
2024-05-09T13:40:30.022Z,99518.63
2024-05-09T13:44:09.786Z,99515.75
2024-05-09T13:47:39.115Z,99510.28
2024-05-09T13:51:07.737Z,99508.38
2024-05-09T13:54:50.769Z,99508.34
2024-05-09T13:58:33.756Z,99502.91
2024-05-09T14:02:17.117Z,99493.53
2024-05-09T14:05:59.894Z,99498.72
2024-05-09T14:09:47.778Z,99500.88
2024-05-09T14:13:17.533Z,99495.34
2024-05-09T14:17:03.848Z,99496.06
2024-05-09T14:20:43.765Z,99497.16
2024-05-09T14:24:25.771Z,99492.09
2024-05-09T14:28:04.833Z,99487.44
2024-05-09T14:31:40.922Z,99491.13
2024-05-09T14:35:02.884Z,99494.84
2024-05-09T14:38:43.791Z,99478.00
2024-05-09T14:42:14.867Z,99482.25
2024-05-09T14:45:58.798Z,99472.91
2024-05-09T14:49:27.981Z,99469.25
2024-05-09T14:53:01.783Z,99473.41
2024-05-09T14:56:55.801Z,99472.25
2024-05-09T15:00:37.994Z,99474.19
2024-05-09T15:04:08.026Z,99477.31
2024-05-09T15:07:36.762Z,99470.25
2024-05-09T15:11:05.985Z,99460.28
2024-05-09T15:14:39.793Z,99454.31
2024-05-09T15:18:12.073Z,99454.94
2024-05-09T15:21:38.782Z,99452.00
2024-05-09T15:25:18.081Z,99441.84
2024-05-09T15:28:57.807Z,99433.16
2024-05-09T15:32:40.917Z,99435.22
2024-05-09T15:36:19.790Z,99420.97
2024-05-09T15:40:04.171Z,99422.34
2024-05-09T15:43:33.456Z,99427.75
2024-05-09T15:47:08.774Z,99421.88
2024-05-09T15:50:51.852Z,99410.78
2024-05-09T15:54:34.803Z,99419.91
2024-05-09T15:58:13.812Z,99407.28
2024-05-09T16:01:51.910Z,99414.94
2024-05-09T16:05:35.008Z,99412.03
2024-05-09T16:09:17.823Z,99401.53
2024-05-09T16:12:57.838Z,99421.63
2024-05-09T16:16:33.855Z,99417.38
2024-05-09T16:20:06.812Z,99413.63
2024-05-09T16:23:37.826Z,99416.91
2024-05-09T16:27:06.966Z,99411.31
2024-05-09T16:30:36.526Z,99413.91
2024-05-09T16:34:16.009Z,99407.63
2024-05-09T16:37:59.811Z,99407.69
2024-05-09T16:41:42.832Z,99410.75
2024-05-09T16:45:20.849Z,99407.34
2024-05-09T16:49:00.885Z,99402.59
2024-05-09T16:52:38.833Z,99400.75
2024-05-09T16:56:18.908Z,99400.59
2024-05-09T17:00:01.837Z,99399.13
2024-05-09T17:03:45.058Z,99405.56
2024-05-09T17:07:27.864Z,99400.88
2024-05-09T17:11:10.973Z,99409.13
2024-05-09T17:14:46.844Z,99407.22
2024-05-09T17:18:16.079Z,99403.63
2024-05-09T17:21:45.935Z,99413.31
2024-05-09T17:25:15.067Z,99410.84
2024-05-09T17:28:50.848Z,99409.38
2024-05-09T17:32:26.998Z,99409.84
2024-05-09T17:35:55.959Z,99419.94
2024-05-09T17:39:24.876Z,99406.56
2024-05-09T17:43:09.651Z,99406.56
2024-05-09T17:46:45.853Z,99412.72
2024-05-09T17:50:21.324Z,99414.53
2024-05-09T17:53:55.855Z,99409.84
2024-05-09T17:57:24.963Z,99410.63
2024-05-09T18:00:53.959Z,99415.09
2024-05-09T18:04:24.094Z,99415.81
2024-05-09T18:07:52.863Z,99419.16
2024-05-09T18:11:37.904Z,99419.06
2024-05-09T18:15:13.913Z,99417.34
2024-05-09T18:18:36.210Z,99425.84
2024-05-09T18:22:11.922Z,99430.56
2024-05-09T18:25:34.025Z,99433.06
2024-05-09T18:29:19.957Z,99445.00
2024-05-09T18:32:56.994Z,99441.19
2024-05-09T18:36:25.950Z,99446.13
2024-05-09T18:39:54.912Z,99447.28
2024-05-09T18:43:44.683Z,99453.75
2024-05-09T18:47:21.024Z,99463.19
2024-05-09T18:50:50.115Z,99471.13
2024-05-09T18:54:18.883Z,99473.53
2024-05-09T18:57:48.042Z,99474.59
2024-05-09T19:01:17.064Z,99481.81
2024-05-09T19:04:47.282Z,99478.66
2024-05-09T19:08:16.028Z,99479.69
2024-05-09T19:11:45.032Z,99487.53
2024-05-09T19:15:13.909Z,99483.00
2024-05-09T19:18:50.096Z,99485.56
2024-05-09T19:22:33.934Z,99480.22
2024-05-09T19:26:16.965Z,99488.22
2024-05-09T19:29:59.912Z,99492.66
2024-05-09T19:33:37.067Z,99500.69
2024-05-09T19:37:06.110Z,99504.69
2024-05-09T19:40:35.783Z,99506.13
2024-05-09T19:44:05.014Z,99516.63
2024-05-09T19:47:34.052Z,99524.75
2024-05-09T19:51:03.125Z,99529.31
2024-05-09T19:54:31.996Z,99522.25
2024-05-09T19:58:16.041Z,99522.47
2024-05-09T20:01:52.172Z,99530.19
2024-05-09T20:05:21.192Z,99531.84
2024-05-09T20:08:49.892Z,99523.91
2024-05-09T20:12:18.998Z,99529.97
2024-05-09T20:15:47.964Z,99529.97
2024-05-09T20:19:17.240Z,99529.91
2024-05-09T20:22:52.912Z,99531.56
2024-05-09T20:26:22.018Z,99535.31
2024-05-09T20:29:57.918Z,99542.41
2024-05-09T20:33:26.952Z,99539.06
2024-05-09T20:36:56.107Z,99546.94
2024-05-09T20:40:30.635Z,99545.44
2024-05-09T20:44:02.463Z,99547.72
2024-05-09T20:47:31.035Z,99549.34
2024-05-09T20:51:00.040Z,99548.28
2024-05-09T20:54:28.941Z,99546.75
2024-05-09T20:57:58.112Z,99545.78
2024-05-09T21:01:27.034Z,99550.09
2024-05-09T21:04:56.111Z,99550.72
2024-05-09T21:08:25.836Z,99548.34
2024-05-09T21:11:56.062Z,99548.28
2024-05-09T21:15:25.000Z,99550.38
2024-05-09T21:19:00.997Z,99546.56
2024-05-09T21:22:43.912Z,99548.59
2024-05-09T21:26:28.908Z,99552.31
2024-05-09T21:30:18.679Z,99564.31
2024-05-09T21:34:03.013Z,99555.25
2024-05-09T21:37:32.033Z,99564.19
2024-05-09T21:41:00.962Z,99557.94
2024-05-09T21:44:43.934Z,99566.59
2024-05-09T21:48:22.047Z,99556.97
2024-05-09T21:52:05.071Z,99555.41
2024-05-09T21:55:47.930Z,99557.91
2024-05-09T21:59:30.946Z,99560.50
2024-05-09T22:03:12.461Z,99565.91
2024-05-09T22:06:53.971Z,99566.09
2024-05-09T22:10:34.683Z,99564.25
2024-05-09T22:14:20.936Z,99560.66
2024-05-09T22:18:01.050Z,99574.09
2024-05-09T22:21:39.952Z,99565.09
2024-05-09T22:25:23.003Z,99568.09
2024-05-09T22:29:05.939Z,99573.03
2024-05-09T22:32:46.055Z,99562.25
2024-05-09T22:36:23.929Z,99567.19
2024-05-09T22:40:04.655Z,99568.28
2024-05-09T22:43:46.962Z,99575.53
2024-05-09T22:47:25.018Z,99570.06
2024-05-09T22:51:07.920Z,99571.03
2024-05-09T22:54:50.961Z,99566.00
2024-05-09T22:58:32.998Z,99567.78
2024-05-09T23:02:12.024Z,99573.38
2024-05-09T23:05:53.948Z,99572.44
2024-05-09T23:09:32.999Z,99581.09
2024-05-09T23:13:16.157Z,99579.44
2024-05-09T23:16:56.996Z,99575.44
2024-05-09T23:20:39.034Z,99582.31
2024-05-09T23:24:18.959Z,99574.41
2024-05-09T23:27:57.141Z,99569.41
2024-05-09T23:31:39.946Z,99575.53
2024-05-09T23:35:15.948Z,99571.19
2024-05-09T23:38:54.965Z,99559.56
2024-05-09T23:42:33.970Z,99570.06
2024-05-09T23:46:16.026Z,99564.38
2024-05-09T23:49:59.958Z,99558.91
2024-05-09T23:53:38.938Z,99551.94
2024-05-09T23:57:17.980Z,99551.38
